Aérodrome :
LOGIN :

S'inscrire | Disclaimer

   EN    FR    IT 

 










Légende :    VFR   VFR Marginal   IFR   IFR Intensif   IFR Très Intensif
Visi : 
Plafond : 
>= 8 km
>= 3000ft
5 à 8 km
1000 à 3000 ft
1500m à 5 km
500 à 1000 ft
800 à 1500m
200 à 500 ft
< 800m
< 200 ft
Symboles :   Orages  Brouillard  Fortes neiges  Fortes précipitations  Vent > 20 kt
SIGMETs :   Divers  Orages  Givrage  Turbulence  Onde Orograph.  Cendres Volcan.







- Altitude de l'aérodrome : 102 ft
- Code IATA : EXT
- Voir les cartes d'approche


EGTE - Exeter

DERNIER METAR :
  • 290650Z 04004KT 2500 -RADZ BR SCT008 BKN015 12/11 Q0995

METARs EXPIRÉS :
  • 290620Z 05004KT 3000 -RADZ BR SCT008 BKN012 12/11 Q0995
  • 290550Z 07002KT 2500 -RADZ BR SCT002 BKN011 12/11 Q0995
  • 290520Z 08003KT 2500 -RADZ BR FEW004 BKN007 12/11 Q0995
  • 290450Z 06003KT 2500 -RA BR FEW004 BKN015 12/11 Q0995

TAF AMD TAF EGTE
Valide du 29 à 06h jusqu'au 29 à 15h UTC


290529Z 2906/2915 02004KT 9999 BKN010
TEMPO 2906/2909 6000 -RADZ BKN008
PROB30
TEMPO 2906/2909 2500 RADZ BR BKN004
BECMG 2909/2912 SCT012
TEMPO 2912/2915 BKN012
Pas de NOTAMs connus pour ce terrain.



MET'MAP, la Météo Aéronautique d'un coup d'oeil ! - Copyright ORBIFLY Décembre 2007 - Disclaimer

ORBIFLY MET'MAP TEAM :

Programmation & Développement : Alexandra Zaïnal
Conception & Développement : Baudouin d'Aumeries
Co-Programmation & Développement : Marc-Olivier Méhu
Soutien technique & logistique : Manuel Goepfert

Contact : metmap@orbifly.com




SOURCES & CREDITS :

   NOAA